sensor_id;sensor_type;location;lat;lon;timestamp;P1;durP1;ratioP1;P2;durP2;ratioP2
10170;SDS011;5127;50.922;6.988;2022-07-25T00:01:47;4.78;;;4.15;;
10170;SDS011;5127;50.922;6.988;2022-07-25T00:04:15;4.20;;;3.90;;
10170;SDS011;5127;50.922;6.988;2022-07-25T00:06:42;5.05;;;4.05;;
10170;SDS011;5127;50.922;6.988;2022-07-25T00:09:10;4.30;;;4.00;;
10170;SDS011;5127;50.922;6.988;2022-07-25T00:11:37;4.85;;;4.05;;
10170;SDS011;5127;50.922;6.988;2022-07-25T00:14:06;4.57;;;4.10;;
10170;SDS011;5127;50.922;6.988;2022-07-25T00:16:33;4.60;;;4.20;;
10170;SDS011;5127;50.922;6.988;2022-07-25T00:19:00;4.88;;;4.47;;
10170;SDS011;5127;50.922;6.988;2022-07-25T00:21:28;4.70;;;4.20;;
10170;SDS011;5127;50.922;6.988;2022-07-25T00:23:55;4.78;;;4.47;;
10170;SDS011;5127;50.922;6.988;2022-07-25T00:26:22;5.07;;;4.57;;
10170;SDS011;5127;50.922;6.988;2022-07-25T00:28:49;5.22;;;4.35;;
10170;SDS011;5127;50.922;6.988;2022-07-25T00:31:18;5.20;;;4.70;;
10170;SDS011;5127;50.922;6.988;2022-07-25T00:33:45;5.22;;;4.78;;
10170;SDS011;5127;50.922;6.988;2022-07-25T00:36:13;4.97;;;4.57;;
10170;SDS011;5127;50.922;6.988;2022-07-25T00:38:40;6.07;;;4.75;;
10170;SDS011;5127;50.922;6.988;2022-07-25T00:41:07;5.65;;;4.65;;
10170;SDS011;5127;50.922;6.988;2022-07-25T00:43:34;4.32;;;3.90;;
10170;SDS011;5127;50.922;6.988;2022-07-25T00:46:02;4.57;;;4.18;;
10170;SDS011;5127;50.922;6.988;2022-07-25T00:48:30;4.38;;;4.00;;
10170;SDS011;5127;50.922;6.988;2022-07-25T00:50:58;4.47;;;4.07;;
10170;SDS011;5127;50.922;6.988;2022-07-25T00:53:25;4.72;;;4.10;;
10170;SDS011;5127;50.922;6.988;2022-07-25T00:55:53;5.43;;;4.93;;
10170;SDS011;5127;50.922;6.988;2022-07-25T00:58:20;7.22;;;5.07;;
10170;SDS011;5127;50.922;6.988;2022-07-25T01:00:47;5.40;;;4.45;;
10170;SDS011;5127;50.922;6.988;2022-07-25T01:03:15;6.20;;;4.93;;
10170;SDS011;5127;50.922;6.988;2022-07-25T01:05:44;5.90;;;5.18;;
10170;SDS011;5127;50.922;6.988;2022-07-25T01:08:11;7.93;;;5.05;;
10170;SDS011;5127;50.922;6.988;2022-07-25T01:10:39;5.40;;;4.90;;
10170;SDS011;5127;50.922;6.988;2022-07-25T01:13:06;5.60;;;5.10;;
10170;SDS011;5127;50.922;6.988;2022-07-25T01:15:33;7.05;;;5.45;;
10170;SDS011;5127;50.922;6.988;2022-07-25T01:18:01;7.20;;;5.90;;
10170;SDS011;5127;50.922;6.988;2022-07-25T01:20:30;6.60;;;6.00;;
10170;SDS011;5127;50.922;6.988;2022-07-25T01:22:58;6.35;;;5.75;;
10170;SDS011;5127;50.922;6.988;2022-07-25T01:25:26;6.30;;;5.80;;
10170;SDS011;5127;50.922;6.988;2022-07-25T01:27:54;6.32;;;5.57;;
10170;SDS011;5127;50.922;6.988;2022-07-25T01:30:22;5.97;;;5.38;;
10170;SDS011;5127;50.922;6.988;2022-07-25T01:32:50;6.20;;;5.60;;
10170;SDS011;5127;50.922;6.988;2022-07-25T01:35:18;6.05;;;5.50;;
10170;SDS011;5127;50.922;6.988;2022-07-25T01:37:46;5.68;;;5.20;;
10170;SDS011;5127;50.922;6.988;2022-07-25T01:40:14;5.25;;;4.82;;
10170;SDS011;5127;50.922;6.988;2022-07-25T01:42:41;5.32;;;4.93;;
10170;SDS011;5127;50.922;6.988;2022-07-25T01:45:09;5.00;;;4.60;;
10170;SDS011;5127;50.922;6.988;2022-07-25T01:47:37;4.63;;;4.22;;
10170;SDS011;5127;50.922;6.988;2022-07-25T01:50:06;5.35;;;4.95;;
10170;SDS011;5127;50.922;6.988;2022-07-25T01:52:34;5.45;;;4.68;;
10170;SDS011;5127;50.922;6.988;2022-07-25T01:55:06;5.32;;;4.93;;
10170;SDS011;5127;50.922;6.988;2022-07-25T01:57:34;6.18;;;5.00;;
10170;SDS011;5127;50.922;6.988;2022-07-25T02:00:01;4.60;;;4.20;;
10170;SDS011;5127;50.922;6.988;2022-07-25T02:02:37;5.20;;;4.70;;
10170;SDS011;5127;50.922;6.988;2022-07-25T02:05:05;5.10;;;4.60;;
10170;SDS011;5127;50.922;6.988;2022-07-25T02:07:33;5.88;;;5.28;;
10170;SDS011;5127;50.922;6.988;2022-07-25T02:10:01;4.65;;;4.25;;
10170;SDS011;5127;50.922;6.988;2022-07-25T02:12:31;4.82;;;4.43;;
10170;SDS011;5127;50.922;6.988;2022-07-25T02:14:58;4.40;;;4.10;;
10170;SDS011;5127;50.922;6.988;2022-07-25T02:17:26;4.28;;;3.97;;
10170;SDS011;5127;50.922;6.988;2022-07-25T02:19:53;4.32;;;4.03;;
10170;SDS011;5127;50.922;6.988;2022-07-25T02:22:20;4.95;;;4.55;;
10170;SDS011;5127;50.922;6.988;2022-07-25T02:24:47;5.15;;;4.68;;
10170;SDS011;5127;50.922;6.988;2022-07-25T02:27:15;5.10;;;4.63;;
10170;SDS011;5127;50.922;6.988;2022-07-25T02:29:43;4.65;;;4.25;;
10170;SDS011;5127;50.922;6.988;2022-07-25T02:32:10;5.00;;;4.60;;
10170;SDS011;5127;50.922;6.988;2022-07-25T02:34:38;5.07;;;4.57;;
10170;SDS011;5127;50.922;6.988;2022-07-25T02:37:05;4.70;;;4.30;;
10170;SDS011;5127;50.922;6.988;2022-07-25T02:39:32;4.93;;;4.53;;
10170;SDS011;5127;50.922;6.988;2022-07-25T02:41:59;4.80;;;4.40;;
10170;SDS011;5127;50.922;6.988;2022-07-25T02:44:27;4.68;;;4.38;;
10170;SDS011;5127;50.922;6.988;2022-07-25T02:46:55;5.47;;;4.43;;
10170;SDS011;5127;50.922;6.988;2022-07-25T02:49:23;4.88;;;4.47;;
10170;SDS011;5127;50.922;6.988;2022-07-25T02:51:50;5.50;;;4.45;;
10170;SDS011;5127;50.922;6.988;2022-07-25T02:54:17;5.07;;;4.68;;
10170;SDS011;5127;50.922;6.988;2022-07-25T02:56:46;4.70;;;4.30;;
10170;SDS011;5127;50.922;6.988;2022-07-25T02:59:13;4.88;;;4.53;;
10170;SDS011;5127;50.922;6.988;2022-07-25T03:01:40;4.88;;;4.47;;
10170;SDS011;5127;50.922;6.988;2022-07-25T03:04:09;5.32;;;4.88;;
10170;SDS011;5127;50.922;6.988;2022-07-25T03:06:36;5.45;;;4.90;;
10170;SDS011;5127;50.922;6.988;2022-07-25T03:09:03;5.28;;;4.55;;
10170;SDS011;5127;50.922;6.988;2022-07-25T03:11:30;5.35;;;4.85;;
10170;SDS011;5127;50.922;6.988;2022-07-25T03:13:59;4.97;;;4.57;;
10170;SDS011;5127;50.922;6.988;2022-07-25T03:16:26;4.85;;;4.45;;
10170;SDS011;5127;50.922;6.988;2022-07-25T03:18:53;5.05;;;4.55;;
10170;SDS011;5127;50.922;6.988;2022-07-25T03:21:22;4.68;;;4.25;;
10170;SDS011;5127;50.922;6.988;2022-07-25T03:23:49;4.60;;;4.20;;
10170;SDS011;5127;50.922;6.988;2022-07-25T03:26:17;4.70;;;4.30;;
10170;SDS011;5127;50.922;6.988;2022-07-25T03:28:44;4.93;;;4.28;;
10170;SDS011;5127;50.922;6.988;2022-07-25T03:31:11;4.40;;;4.10;;
10170;SDS011;5127;50.922;6.988;2022-07-25T03:33:38;4.90;;;4.50;;
10170;SDS011;5127;50.922;6.988;2022-07-25T03:36:06;4.95;;;4.55;;
10170;SDS011;5127;50.922;6.988;2022-07-25T03:38:36;4.85;;;4.50;;
10170;SDS011;5127;50.922;6.988;2022-07-25T03:41:03;5.15;;;4.72;;
10170;SDS011;5127;50.922;6.988;2022-07-25T03:43:31;5.35;;;4.85;;
10170;SDS011;5127;50.922;6.988;2022-07-25T03:45:58;5.25;;;4.68;;
10170;SDS011;5127;50.922;6.988;2022-07-25T03:48:25;5.60;;;4.97;;
10170;SDS011;5127;50.922;6.988;2022-07-25T03:50:54;5.38;;;4.88;;
10170;SDS011;5127;50.922;6.988;2022-07-25T03:53:22;5.40;;;4.90;;
10170;SDS011;5127;50.922;6.988;2022-07-25T03:55:50;6.38;;;4.65;;
10170;SDS011;5127;50.922;6.988;2022-07-25T03:58:18;5.15;;;4.65;;
10170;SDS011;5127;50.922;6.988;2022-07-25T04:00:45;4.53;;;4.15;;
10170;SDS011;5127;50.922;6.988;2022-07-25T04:03:13;5.00;;;4.50;;
10170;SDS011;5127;50.922;6.988;2022-07-25T04:05:41;5.25;;;4.75;;
10170;SDS011;5127;50.922;6.988;2022-07-25T04:08:08;5.07;;;4.60;;
10170;SDS011;5127;50.922;6.988;2022-07-25T04:10:35;4.72;;;4.25;;
10170;SDS011;5127;50.922;6.988;2022-07-25T04:13:05;4.65;;;4.25;;
10170;SDS011;5127;50.922;6.988;2022-07-25T04:15:32;4.75;;;4.35;;
10170;SDS011;5127;50.922;6.988;2022-07-25T04:18:00;5.28;;;4.88;;
10170;SDS011;5127;50.922;6.988;2022-07-25T04:20:27;4.85;;;4.45;;
10170;SDS011;5127;50.922;6.988;2022-07-25T04:22:54;5.18;;;4.65;;
10170;SDS011;5127;50.922;6.988;2022-07-25T04:25:21;5.13;;;4.63;;
10170;SDS011;5127;50.922;6.988;2022-07-25T04:27:49;5.18;;;4.78;;
10170;SDS011;5127;50.922;6.988;2022-07-25T04:30:18;4.80;;;4.50;;
10170;SDS011;5127;50.922;6.988;2022-07-25T04:32:46;5.30;;;4.72;;
10170;SDS011;5127;50.922;6.988;2022-07-25T04:35:13;5.20;;;4.75;;
10170;SDS011;5127;50.922;6.988;2022-07-25T04:37:40;4.90;;;4.45;;
10170;SDS011;5127;50.922;6.988;2022-07-25T04:40:08;4.93;;;4.43;;
10170;SDS011;5127;50.922;6.988;2022-07-25T04:42:36;6.85;;;4.40;;
10170;SDS011;5127;50.922;6.988;2022-07-25T04:45:03;4.82;;;4.30;;
10170;SDS011;5127;50.922;6.988;2022-07-25T04:47:32;4.80;;;4.35;;
10170;SDS011;5127;50.922;6.988;2022-07-25T04:49:59;4.60;;;4.20;;
10170;SDS011;5127;50.922;6.988;2022-07-25T04:52:27;4.97;;;4.57;;
10170;SDS011;5127;50.922;6.988;2022-07-25T04:54:54;5.03;;;4.63;;
10170;SDS011;5127;50.922;6.988;2022-07-25T04:57:21;4.63;;;4.22;;
10170;SDS011;5127;50.922;6.988;2022-07-25T04:59:48;4.95;;;4.50;;
10170;SDS011;5127;50.922;6.988;2022-07-25T05:02:16;4.80;;;4.38;;
10170;SDS011;5127;50.922;6.988;2022-07-25T05:04:44;4.95;;;4.55;;
10170;SDS011;5127;50.922;6.988;2022-07-25T05:07:12;4.63;;;4.25;;
10170;SDS011;5127;50.922;6.988;2022-07-25T05:09:39;4.82;;;4.43;;
10170;SDS011;5127;50.922;6.988;2022-07-25T05:12:06;5.10;;;4.60;;
10170;SDS011;5127;50.922;6.988;2022-07-25T05:14:34;4.47;;;4.07;;
10170;SDS011;5127;50.922;6.988;2022-07-25T05:17:01;4.90;;;4.50;;
10170;SDS011;5127;50.922;6.988;2022-07-25T05:19:28;4.32;;;3.92;;
10170;SDS011;5127;50.922;6.988;2022-07-25T05:21:57;5.10;;;4.60;;
10170;SDS011;5127;50.922;6.988;2022-07-25T05:24:24;4.72;;;4.32;;
10170;SDS011;5127;50.922;6.988;2022-07-25T05:26:52;6.75;;;4.57;;
10170;SDS011;5127;50.922;6.988;2022-07-25T05:29:19;6.03;;;4.40;;
10170;SDS011;5127;50.922;6.988;2022-07-25T05:31:46;9.88;;;4.30;;
10170;SDS011;5127;50.922;6.988;2022-07-25T05:34:14;8.55;;;5.00;;
10170;SDS011;5127;50.922;6.988;2022-07-25T05:36:41;4.78;;;4.38;;
10170;SDS011;5127;50.922;6.988;2022-07-25T05:39:09;4.72;;;4.05;;
10170;SDS011;5127;50.922;6.988;2022-07-25T05:41:37;4.32;;;3.92;;
10170;SDS011;5127;50.922;6.988;2022-07-25T05:44:04;4.70;;;4.30;;
10170;SDS011;5127;50.922;6.988;2022-07-25T05:46:31;5.75;;;4.20;;
10170;SDS011;5127;50.922;6.988;2022-07-25T05:49:00;5.30;;;4.35;;
10170;SDS011;5127;50.922;6.988;2022-07-25T05:51:27;6.43;;;4.40;;
10170;SDS011;5127;50.922;6.988;2022-07-25T05:53:54;7.15;;;4.30;;
10170;SDS011;5127;50.922;6.988;2022-07-25T05:56:23;8.65;;;4.50;;
10170;SDS011;5127;50.922;6.988;2022-07-25T05:58:50;5.10;;;4.60;;
10170;SDS011;5127;50.922;6.988;2022-07-25T06:01:17;5.15;;;4.32;;
10170;SDS011;5127;50.922;6.988;2022-07-25T06:03:45;5.78;;;4.30;;
10170;SDS011;5127;50.922;6.988;2022-07-25T06:06:12;5.13;;;4.28;;
10170;SDS011;5127;50.922;6.988;2022-07-25T06:08:39;5.05;;;4.18;;
10170;SDS011;5127;50.922;6.988;2022-07-25T06:11:06;6.72;;;4.20;;
10170;SDS011;5127;50.922;6.988;2022-07-25T06:13:35;7.00;;;4.25;;
10170;SDS011;5127;50.922;6.988;2022-07-25T06:16:02;4.85;;;4.28;;
10170;SDS011;5127;50.922;6.988;2022-07-25T06:18:30;4.80;;;4.13;;
10170;SDS011;5127;50.922;6.988;2022-07-25T06:20:57;4.82;;;4.43;;
10170;SDS011;5127;50.922;6.988;2022-07-25T06:23:25;6.38;;;4.20;;
10170;SDS011;5127;50.922;6.988;2022-07-25T06:25:52;6.30;;;4.45;;
10170;SDS011;5127;50.922;6.988;2022-07-25T06:28:19;4.43;;;4.03;;
10170;SDS011;5127;50.922;6.988;2022-07-25T06:30:48;4.88;;;4.38;;
10170;SDS011;5127;50.922;6.988;2022-07-25T06:33:15;5.00;;;4.50;;
10170;SDS011;5127;50.922;6.988;2022-07-25T06:35:43;5.78;;;4.25;;
10170;SDS011;5127;50.922;6.988;2022-07-25T06:38:10;4.00;;;3.70;;
10170;SDS011;5127;50.922;6.988;2022-07-25T06:40:37;4.82;;;4.13;;
10170;SDS011;5127;50.922;6.988;2022-07-25T06:43:04;5.00;;;4.45;;
10170;SDS011;5127;50.922;6.988;2022-07-25T06:45:32;4.80;;;4.15;;
10170;SDS011;5127;50.922;6.988;2022-07-25T06:48:01;4.55;;;4.15;;
10170;SDS011;5127;50.922;6.988;2022-07-25T06:50:28;4.88;;;4.38;;
10170;SDS011;5127;50.922;6.988;2022-07-25T06:52:55;5.40;;;4.15;;
10170;SDS011;5127;50.922;6.988;2022-07-25T06:55:23;4.28;;;3.88;;
10170;SDS011;5127;50.922;6.988;2022-07-25T06:57:50;4.60;;;4.00;;
10170;SDS011;5127;50.922;6.988;2022-07-25T07:00:17;4.70;;;4.25;;
10170;SDS011;5127;50.922;6.988;2022-07-25T07:02:48;4.25;;;3.92;;
10170;SDS011;5127;50.922;6.988;2022-07-25T07:05:18;4.38;;;4.07;;
10170;SDS011;5127;50.922;6.988;2022-07-25T07:07:46;4.55;;;4.15;;
10170;SDS011;5127;50.922;6.988;2022-07-25T07:10:13;5.90;;;4.05;;
10170;SDS011;5127;50.922;6.988;2022-07-25T07:12:40;4.63;;;4.20;;
10170;SDS011;5127;50.922;6.988;2022-07-25T07:15:08;5.38;;;3.83;;
10170;SDS011;5127;50.922;6.988;2022-07-25T07:17:36;4.28;;;3.88;;
10170;SDS011;5127;50.922;6.988;2022-07-25T07:20:04;4.60;;;4.15;;
10170;SDS011;5127;50.922;6.988;2022-07-25T07:22:42;3.58;;;3.38;;
10170;SDS011;5127;50.922;6.988;2022-07-25T07:25:11;4.68;;;4.28;;
10170;SDS011;5127;50.922;6.988;2022-07-25T07:27:39;4.25;;;3.88;;
10170;SDS011;5127;50.922;6.988;2022-07-25T07:30:06;4.20;;;3.83;;
10170;SDS011;5127;50.922;6.988;2022-07-25T07:32:35;4.20;;;3.90;;
10170;SDS011;5127;50.922;6.988;2022-07-25T07:35:02;6.05;;;3.88;;
10170;SDS011;5127;50.922;6.988;2022-07-25T07:37:30;4.70;;;4.15;;
10170;SDS011;5127;50.922;6.988;2022-07-25T07:39:58;4.20;;;3.90;;
10170;SDS011;5127;50.922;6.988;2022-07-25T07:42:26;4.28;;;3.97;;
10170;SDS011;5127;50.922;6.988;2022-07-25T07:44:53;4.22;;;3.92;;
10170;SDS011;5127;50.922;6.988;2022-07-25T07:47:20;4.70;;;4.18;;
10170;SDS011;5127;50.922;6.988;2022-07-25T07:49:47;4.25;;;3.72;;
10170;SDS011;5127;50.922;6.988;2022-07-25T07:52:14;5.47;;;4.05;;
10170;SDS011;5127;50.922;6.988;2022-07-25T07:54:42;4.35;;;3.92;;
10170;SDS011;5127;50.922;6.988;2022-07-25T07:57:28;4.03;;;3.72;;
10170;SDS011;5127;50.922;6.988;2022-07-25T07:59:55;4.20;;;3.90;;
10170;SDS011;5127;50.922;6.988;2022-07-25T08:02:22;4.00;;;3.65;;
10170;SDS011;5127;50.922;6.988;2022-07-25T08:04:49;4.55;;;4.15;;
10170;SDS011;5127;50.922;6.988;2022-07-25T08:07:17;4.57;;;4.18;;
10170;SDS011;5127;50.922;6.988;2022-07-25T08:09:44;4.00;;;3.70;;
10170;SDS011;5127;50.922;6.988;2022-07-25T08:12:11;4.68;;;4.28;;
10170;SDS011;5127;50.922;6.988;2022-07-25T08:14:40;4.22;;;3.92;;
10170;SDS011;5127;50.922;6.988;2022-07-25T08:17:07;5.00;;;4.00;;
10170;SDS011;5127;50.922;6.988;2022-07-25T08:19:34;3.90;;;3.55;;
10170;SDS011;5127;50.922;6.988;2022-07-25T08:22:01;4.13;;;3.83;;
10170;SDS011;5127;50.922;6.988;2022-07-25T08:24:29;5.50;;;3.95;;
10170;SDS011;5127;50.922;6.988;2022-07-25T08:26:56;5.43;;;3.97;;
10170;SDS011;5127;50.922;6.988;2022-07-25T08:29:23;4.80;;;4.30;;
10170;SDS011;5127;50.922;6.988;2022-07-25T08:31:51;4.20;;;3.80;;
10170;SDS011;5127;50.922;6.988;2022-07-25T08:34:19;4.15;;;3.85;;
10170;SDS011;5127;50.922;6.988;2022-07-25T08:36:47;4.00;;;3.70;;
10170;SDS011;5127;50.922;6.988;2022-07-25T08:39:14;4.15;;;3.80;;
10170;SDS011;5127;50.922;6.988;2022-07-25T08:41:41;6.20;;;3.97;;
10170;SDS011;5127;50.922;6.988;2022-07-25T08:44:09;4.78;;;4.38;;
10170;SDS011;5127;50.922;6.988;2022-07-25T08:46:39;3.97;;;3.53;;
10170;SDS011;5127;50.922;6.988;2022-07-25T08:49:08;4.43;;;4.03;;
10170;SDS011;5127;50.922;6.988;2022-07-25T08:51:36;4.28;;;3.88;;
10170;SDS011;5127;50.922;6.988;2022-07-25T08:54:05;4.35;;;3.95;;
10170;SDS011;5127;50.922;6.988;2022-07-25T08:56:32;4.38;;;4.07;;
10170;SDS011;5127;50.922;6.988;2022-07-25T08:59:00;4.28;;;3.88;;
10170;SDS011;5127;50.922;6.988;2022-07-25T09:01:28;4.15;;;3.85;;
10170;SDS011;5127;50.922;6.988;2022-07-25T09:03:55;4.30;;;3.90;;
10170;SDS011;5127;50.922;6.988;2022-07-25T09:06:24;4.22;;;3.92;;
10170;SDS011;5127;50.922;6.988;2022-07-25T09:08:52;5.72;;;4.15;;
10170;SDS011;5127;50.922;6.988;2022-07-25T09:11:27;4.82;;;4.20;;
10170;SDS011;5127;50.922;6.988;2022-07-25T09:14:02;4.70;;;4.32;;
10170;SDS011;5127;50.922;6.988;2022-07-25T09:16:31;4.22;;;3.92;;
10170;SDS011;5127;50.922;6.988;2022-07-25T09:19:06;4.45;;;4.05;;
10170;SDS011;5127;50.922;6.988;2022-07-25T09:21:36;5.13;;;4.20;;
10170;SDS011;5127;50.922;6.988;2022-07-25T09:24:08;4.13;;;3.80;;
10170;SDS011;5127;50.922;6.988;2022-07-25T09:26:44;5.80;;;4.30;;
10170;SDS011;5127;50.922;6.988;2022-07-25T09:29:19;4.25;;;3.92;;
10170;SDS011;5127;50.922;6.988;2022-07-25T09:31:48;4.63;;;4.22;;
10170;SDS011;5127;50.922;6.988;2022-07-25T09:34:28;4.40;;;4.05;;
10170;SDS011;5127;50.922;6.988;2022-07-25T09:36:59;4.57;;;4.15;;
10170;SDS011;5127;50.922;6.988;2022-07-25T09:39:34;4.50;;;4.10;;
10170;SDS011;5127;50.922;6.988;2022-07-25T09:42:12;4.55;;;4.15;;
10170;SDS011;5127;50.922;6.988;2022-07-25T09:44:40;4.82;;;4.43;;
10170;SDS011;5127;50.922;6.988;2022-07-25T09:47:09;4.65;;;4.32;;
10170;SDS011;5127;50.922;6.988;2022-07-25T09:49:39;5.10;;;3.90;;
10170;SDS011;5127;50.922;6.988;2022-07-25T09:52:10;5.18;;;4.03;;
10170;SDS011;5127;50.922;6.988;2022-07-25T09:54:37;4.75;;;4.35;;
10170;SDS011;5127;50.922;6.988;2022-07-25T09:57:05;4.65;;;4.28;;
10170;SDS011;5127;50.922;6.988;2022-07-25T09:59:33;4.90;;;4.43;;
10170;SDS011;5127;50.922;6.988;2022-07-25T10:02:03;5.30;;;4.35;;
10170;SDS011;5127;50.922;6.988;2022-07-25T10:04:39;4.95;;;4.55;;
10170;SDS011;5127;50.922;6.988;2022-07-25T10:07:13;6.10;;;4.40;;
10170;SDS011;5127;50.922;6.988;2022-07-25T10:09:45;4.97;;;4.47;;
10170;SDS011;5127;50.922;6.988;2022-07-25T10:12:17;5.78;;;4.38;;
10170;SDS011;5127;50.922;6.988;2022-07-25T10:17:35;6.68;;;4.55;;
10170;SDS011;5127;50.922;6.988;2022-07-25T10:20:03;4.43;;;4.10;;
10170;SDS011;5127;50.922;6.988;2022-07-25T10:22:38;5.03;;;4.32;;
10170;SDS011;5127;50.922;6.988;2022-07-25T10:25:08;5.38;;;4.85;;
10170;SDS011;5127;50.922;6.988;2022-07-25T10:27:41;4.88;;;4.47;;
10170;SDS011;5127;50.922;6.988;2022-07-25T10:30:19;5.03;;;4.40;;
10170;SDS011;5127;50.922;6.988;2022-07-25T10:32:48;4.97;;;4.18;;
10170;SDS011;5127;50.922;6.988;2022-07-25T10:35:17;4.65;;;4.25;;
10170;SDS011;5127;50.922;6.988;2022-07-25T10:37:48;4.70;;;4.30;;
10170;SDS011;5127;50.922;6.988;2022-07-25T10:40:26;4.47;;;4.13;;
10170;SDS011;5127;50.922;6.988;2022-07-25T10:42:56;4.50;;;4.15;;
10170;SDS011;5127;50.922;6.988;2022-07-25T10:45:32;5.18;;;4.68;;
10170;SDS011;5127;50.922;6.988;2022-07-25T10:48:08;4.57;;;4.18;;
10170;SDS011;5127;50.922;6.988;2022-07-25T10:50:51;4.55;;;4.15;;
10170;SDS011;5127;50.922;6.988;2022-07-25T10:53:27;4.40;;;4.00;;
10170;SDS011;5127;50.922;6.988;2022-07-25T10:55:57;5.32;;;4.50;;
10170;SDS011;5127;50.922;6.988;2022-07-25T10:58:39;4.47;;;3.90;;
10170;SDS011;5127;50.922;6.988;2022-07-25T11:01:11;4.45;;;4.05;;
10170;SDS011;5127;50.922;6.988;2022-07-25T11:03:44;4.43;;;4.03;;
10170;SDS011;5127;50.922;6.988;2022-07-25T11:06:12;4.05;;;3.75;;
10170;SDS011;5127;50.922;6.988;2022-07-25T11:08:42;5.75;;;4.22;;
10170;SDS011;5127;50.922;6.988;2022-07-25T11:11:11;4.07;;;3.78;;
10170;SDS011;5127;50.922;6.988;2022-07-25T11:13:39;5.78;;;3.85;;
10170;SDS011;5127;50.922;6.988;2022-07-25T11:16:07;4.93;;;3.80;;
10170;SDS011;5127;50.922;6.988;2022-07-25T11:18:36;4.15;;;3.78;;
10170;SDS011;5127;50.922;6.988;2022-07-25T11:21:06;4.57;;;4.18;;
10170;SDS011;5127;50.922;6.988;2022-07-25T11:23:34;4.68;;;4.13;;
10170;SDS011;5127;50.922;6.988;2022-07-25T11:26:04;4.15;;;3.80;;
10170;SDS011;5127;50.922;6.988;2022-07-25T11:28:38;3.80;;;3.50;;
10170;SDS011;5127;50.922;6.988;2022-07-25T11:31:06;4.28;;;3.88;;
10170;SDS011;5127;50.922;6.988;2022-07-25T11:33:33;3.88;;;3.58;;
10170;SDS011;5127;50.922;6.988;2022-07-25T11:36:01;3.95;;;3.60;;
10170;SDS011;5127;50.922;6.988;2022-07-25T11:38:28;4.50;;;3.80;;
10170;SDS011;5127;50.922;6.988;2022-07-25T11:40:56;4.93;;;3.58;;
10170;SDS011;5127;50.922;6.988;2022-07-25T11:43:25;3.63;;;3.33;;
10170;SDS011;5127;50.922;6.988;2022-07-25T11:45:55;3.75;;;3.35;;
10170;SDS011;5127;50.922;6.988;2022-07-25T11:48:31;4.60;;;3.65;;
10170;SDS011;5127;50.922;6.988;2022-07-25T11:51:08;3.75;;;3.45;;
10170;SDS011;5127;50.922;6.988;2022-07-25T11:53:37;3.50;;;3.20;;
10170;SDS011;5127;50.922;6.988;2022-07-25T11:56:12;5.45;;;3.38;;
10170;SDS011;5127;50.922;6.988;2022-07-25T11:58:43;3.80;;;3.50;;
10170;SDS011;5127;50.922;6.988;2022-07-25T12:01:15;3.88;;;3.25;;
10170;SDS011;5127;50.922;6.988;2022-07-25T12:03:42;3.35;;;3.05;;
10170;SDS011;5127;50.922;6.988;2022-07-25T12:06:11;3.50;;;3.20;;
10170;SDS011;5127;50.922;6.988;2022-07-25T12:08:39;3.15;;;2.92;;
10170;SDS011;5127;50.922;6.988;2022-07-25T12:11:20;3.03;;;2.83;;
10170;SDS011;5127;50.922;6.988;2022-07-25T12:13:50;2.80;;;2.50;;
10170;SDS011;5127;50.922;6.988;2022-07-25T12:16:29;4.47;;;3.63;;
10170;SDS011;5127;50.922;6.988;2022-07-25T12:18:56;5.35;;;3.38;;
10170;SDS011;5127;50.922;6.988;2022-07-25T12:21:23;2.97;;;2.70;;
10170;SDS011;5127;50.922;6.988;2022-07-25T12:23:51;2.85;;;2.65;;
10170;SDS011;5127;50.922;6.988;2022-07-25T12:26:18;3.00;;;2.70;;
10170;SDS011;5127;50.922;6.988;2022-07-25T12:28:46;3.67;;;2.80;;
10170;SDS011;5127;50.922;6.988;2022-07-25T12:31:14;2.80;;;2.25;;
10170;SDS011;5127;50.922;6.988;2022-07-25T12:33:41;3.35;;;2.63;;
10170;SDS011;5127;50.922;6.988;2022-07-25T12:36:10;2.97;;;2.70;;
10170;SDS011;5127;50.922;6.988;2022-07-25T12:38:38;3.90;;;2.85;;
10170;SDS011;5127;50.922;6.988;2022-07-25T12:41:06;4.05;;;2.75;;
10170;SDS011;5127;50.922;6.988;2022-07-25T12:43:33;3.38;;;2.60;;
10170;SDS011;5127;50.922;6.988;2022-07-25T12:46:01;4.13;;;2.88;;
10170;SDS011;5127;50.922;6.988;2022-07-25T12:48:29;4.82;;;2.70;;
10170;SDS011;5127;50.922;6.988;2022-07-25T12:50:56;4.50;;;2.95;;
10170;SDS011;5127;50.922;6.988;2022-07-25T12:53:24;5.00;;;3.13;;
10170;SDS011;5127;50.922;6.988;2022-07-25T12:55:51;3.00;;;2.70;;
10170;SDS011;5127;50.922;6.988;2022-07-25T12:58:18;3.15;;;2.50;;
10170;SDS011;5127;50.922;6.988;2022-07-25T13:00:46;3.08;;;2.38;;
10170;SDS011;5127;50.922;6.988;2022-07-25T13:03:13;4.70;;;2.17;;
10170;SDS011;5127;50.922;6.988;2022-07-25T13:05:42;4.35;;;2.30;;
10170;SDS011;5127;50.922;6.988;2022-07-25T13:08:09;4.22;;;2.25;;
10170;SDS011;5127;50.922;6.988;2022-07-25T13:10:37;2.45;;;2.20;;
10170;SDS011;5127;50.922;6.988;2022-07-25T13:13:04;2.90;;;2.20;;
10170;SDS011;5127;50.922;6.988;2022-07-25T13:15:32;3.72;;;2.60;;
10170;SDS011;5127;50.922;6.988;2022-07-25T13:18:00;3.67;;;2.53;;
10170;SDS011;5127;50.922;6.988;2022-07-25T13:20:28;3.10;;;2.78;;
10170;SDS011;5127;50.922;6.988;2022-07-25T13:22:57;2.83;;;2.50;;
10170;SDS011;5127;50.922;6.988;2022-07-25T13:25:24;6.18;;;2.90;;
10170;SDS011;5127;50.922;6.988;2022-07-25T13:27:51;5.35;;;2.40;;
10170;SDS011;5127;50.922;6.988;2022-07-25T13:30:18;2.95;;;2.30;;
10170;SDS011;5127;50.922;6.988;2022-07-25T13:32:46;2.67;;;2.00;;
10170;SDS011;5127;50.922;6.988;2022-07-25T13:35:13;3.70;;;2.13;;
10170;SDS011;5127;50.922;6.988;2022-07-25T13:37:40;3.17;;;2.28;;
10170;SDS011;5127;50.922;6.988;2022-07-25T13:40:09;2.55;;;2.10;;
10170;SDS011;5127;50.922;6.988;2022-07-25T13:42:36;5.63;;;2.15;;
10170;SDS011;5127;50.922;6.988;2022-07-25T13:45:05;3.33;;;1.80;;
10170;SDS011;5127;50.922;6.988;2022-07-25T13:47:33;2.92;;;2.03;;
10170;SDS011;5127;50.922;6.988;2022-07-25T13:50:01;2.42;;;1.83;;
10170;SDS011;5127;50.922;6.988;2022-07-25T13:52:28;2.53;;;1.70;;
10170;SDS011;5127;50.922;6.988;2022-07-25T13:54:55;2.47;;;1.70;;
10170;SDS011;5127;50.922;6.988;2022-07-25T13:57:24;2.08;;;1.50;;
10170;SDS011;5127;50.922;6.988;2022-07-25T13:59:51;3.05;;;1.90;;
10170;SDS011;5127;50.922;6.988;2022-07-25T14:02:18;1.63;;;1.30;;
10170;SDS011;5127;50.922;6.988;2022-07-25T14:04:45;1.70;;;1.60;;
10170;SDS011;5127;50.922;6.988;2022-07-25T14:07:13;2.38;;;1.48;;
10170;SDS011;5127;50.922;6.988;2022-07-25T14:09:40;1.55;;;1.25;;
10170;SDS011;5127;50.922;6.988;2022-07-25T14:12:07;3.92;;;1.40;;
10170;SDS011;5127;50.922;6.988;2022-07-25T14:14:36;1.63;;;1.52;;
10170;SDS011;5127;50.922;6.988;2022-07-25T14:17:04;2.65;;;1.50;;
10170;SDS011;5127;50.922;6.988;2022-07-25T14:19:31;1.60;;;1.50;;
10170;SDS011;5127;50.922;6.988;2022-07-25T14:21:58;2.40;;;1.40;;
10170;SDS011;5127;50.922;6.988;2022-07-25T14:24:26;3.25;;;1.70;;
10170;SDS011;5127;50.922;6.988;2022-07-25T14:26:53;3.65;;;1.58;;
10170;SDS011;5127;50.922;6.988;2022-07-25T14:29:20;2.20;;;1.50;;
10170;SDS011;5127;50.922;6.988;2022-07-25T14:31:49;1.50;;;1.40;;
10170;SDS011;5127;50.922;6.988;2022-07-25T14:34:16;1.58;;;1.33;;
10170;SDS011;5127;50.922;6.988;2022-07-25T14:36:44;2.20;;;1.73;;
10170;SDS011;5127;50.922;6.988;2022-07-25T14:39:12;3.08;;;1.48;;
10170;SDS011;5127;50.922;6.988;2022-07-25T14:41:40;3.40;;;1.42;;
10170;SDS011;5127;50.922;6.988;2022-07-25T14:44:07;2.05;;;1.48;;
10170;SDS011;5127;50.922;6.988;2022-07-25T14:46:35;2.42;;;1.33;;
10170;SDS011;5127;50.922;6.988;2022-07-25T14:49:03;2.42;;;1.48;;
10170;SDS011;5127;50.922;6.988;2022-07-25T14:51:30;5.18;;;1.60;;
10170;SDS011;5127;50.922;6.988;2022-07-25T14:53:58;2.90;;;1.48;;
10170;SDS011;5127;50.922;6.988;2022-07-25T14:56:25;3.42;;;1.30;;
10170;SDS011;5127;50.922;6.988;2022-07-25T14:58:53;2.33;;;1.40;;
10170;SDS011;5127;50.922;6.988;2022-07-25T15:01:20;1.60;;;1.50;;
10170;SDS011;5127;50.922;6.988;2022-07-25T15:03:49;1.55;;;1.45;;
10170;SDS011;5127;50.922;6.988;2022-07-25T15:06:18;1.20;;;1.10;;
10170;SDS011;5127;50.922;6.988;2022-07-25T15:08:45;3.67;;;1.63;;
10170;SDS011;5127;50.922;6.988;2022-07-25T15:11:15;1.50;;;1.35;;